sensor_id;sensor_type;location;lat;lon;timestamp;pressure;altitude;pressure_sealevel;temperature;humidity
44934;BME280;30667;43.614;1.442;2023-03-19T00:02:19;100113.50;;;11.70;100.00
44934;BME280;30667;43.614;1.442;2023-03-19T00:04:45;100099.22;;;11.59;100.00
44934;BME280;30667;43.614;1.442;2023-03-19T00:07:11;100100.84;;;11.60;100.00
44934;BME280;30667;43.614;1.442;2023-03-19T00:09:36;100096.22;;;11.61;100.00
44934;BME280;30667;43.614;1.442;2023-03-19T00:12:01;100097.34;;;11.60;100.00
44934;BME280;30667;43.614;1.442;2023-03-19T00:14:27;100106.28;;;11.60;100.00
44934;BME280;30667;43.614;1.442;2023-03-19T00:16:52;100107.34;;;11.59;100.00
44934;BME280;30667;43.614;1.442;2023-03-19T00:19:17;100108.97;;;11.60;100.00
44934;BME280;30667;43.614;1.442;2023-03-19T00:21:43;100110.91;;;11.55;100.00
44934;BME280;30667;43.614;1.442;2023-03-19T00:24:08;100109.59;;;11.52;100.00
44934;BME280;30667;43.614;1.442;2023-03-19T00:26:35;100105.75;;;11.53;100.00
44934;BME280;30667;43.614;1.442;2023-03-19T00:29:01;100111.22;;;11.48;100.00
44934;BME280;30667;43.614;1.442;2023-03-19T00:31:28;100110.66;;;11.51;100.00
44934;BME280;30667;43.614;1.442;2023-03-19T00:33:56;100114.72;;;11.49;100.00
44934;BME280;30667;43.614;1.442;2023-03-19T00:36:23;100117.72;;;11.47;100.00
44934;BME280;30667;43.614;1.442;2023-03-19T00:38:49;100124.22;;;11.51;100.00
44934;BME280;30667;43.614;1.442;2023-03-19T00:41:16;100118.28;;;11.49;100.00
44934;BME280;30667;43.614;1.442;2023-03-19T00:43:43;100122.09;;;11.43;100.00
44934;BME280;30667;43.614;1.442;2023-03-19T00:46:09;100113.47;;;11.36;100.00
44934;BME280;30667;43.614;1.442;2023-03-19T00:48:34;100112.91;;;11.44;100.00
44934;BME280;30667;43.614;1.442;2023-03-19T00:51:05;100126.44;;;11.44;100.00
44934;BME280;30667;43.614;1.442;2023-03-19T00:53:32;100119.41;;;11.43;100.00
44934;BME280;30667;43.614;1.442;2023-03-19T00:56:00;100119.63;;;11.47;100.00
44934;BME280;30667;43.614;1.442;2023-03-19T00:58:26;100126.91;;;11.51;100.00
44934;BME280;30667;43.614;1.442;2023-03-19T01:00:52;100122.63;;;11.45;100.00
44934;BME280;30667;43.614;1.442;2023-03-19T01:03:18;100127.25;;;11.44;100.00
44934;BME280;30667;43.614;1.442;2023-03-19T01:05:43;100128.00;;;11.50;100.00
44934;BME280;30667;43.614;1.442;2023-03-19T01:08:11;100127.19;;;11.50;100.00
44934;BME280;30667;43.614;1.442;2023-03-19T01:10:36;100131.31;;;11.42;100.00
44934;BME280;30667;43.614;1.442;2023-03-19T01:13:02;100131.28;;;11.47;100.00
44934;BME280;30667;43.614;1.442;2023-03-19T01:15:27;100129.66;;;11.46;100.00
44934;BME280;30667;43.614;1.442;2023-03-19T01:17:52;100129.66;;;11.46;100.00
44934;BME280;30667;43.614;1.442;2023-03-19T01:20:18;100121.03;;;11.44;100.00
44934;BME280;30667;43.614;1.442;2023-03-19T01:22:45;100129.91;;;11.50;100.00
44934;BME280;30667;43.614;1.442;2023-03-19T01:25:12;100134.28;;;11.45;100.00
44934;BME280;30667;43.614;1.442;2023-03-19T01:27:38;100133.97;;;11.47;100.00
44934;BME280;30667;43.614;1.442;2023-03-19T01:30:05;100131.53;;;11.51;100.00
44934;BME280;30667;43.614;1.442;2023-03-19T01:32:31;100136.41;;;11.49;100.00
44934;BME280;30667;43.614;1.442;2023-03-19T01:34:57;100135.94;;;11.41;100.00
44934;BME280;30667;43.614;1.442;2023-03-19T01:37:23;100135.94;;;11.41;100.00
44934;BME280;30667;43.614;1.442;2023-03-19T01:39:48;100139.44;;;11.42;100.00
44934;BME280;30667;43.614;1.442;2023-03-19T01:42:14;100137.75;;;11.51;100.00
44934;BME280;30667;43.614;1.442;2023-03-19T01:44:40;100123.97;;;11.48;100.00
44934;BME280;30667;43.614;1.442;2023-03-19T01:47:28;100127.28;;;11.39;100.00
44934;BME280;30667;43.614;1.442;2023-03-19T01:49:55;100133.78;;;11.38;100.00
44934;BME280;30667;43.614;1.442;2023-03-19T01:52:22;100121.88;;;11.34;100.00
44934;BME280;30667;43.614;1.442;2023-03-19T01:54:51;100126.22;;;11.35;100.00
44934;BME280;30667;43.614;1.442;2023-03-19T01:57:17;100121.59;;;11.36;100.00
44934;BME280;30667;43.614;1.442;2023-03-19T01:59:52;100123.78;;;11.34;100.00
44934;BME280;30667;43.614;1.442;2023-03-19T02:02:37;100130.03;;;11.29;100.00
44934;BME280;30667;43.614;1.442;2023-03-19T02:05:08;100127.59;;;11.27;100.00
44934;BME280;30667;43.614;1.442;2023-03-19T02:07:37;100144.97;;;11.26;100.00
44934;BME280;30667;43.614;1.442;2023-03-19T02:10:08;100135.72;;;11.27;100.00
44934;BME280;30667;43.614;1.442;2023-03-19T02:12:34;100139.53;;;11.26;100.00
44934;BME280;30667;43.614;1.442;2023-03-19T02:15:00;100140.91;;;11.24;100.00
44934;BME280;30667;43.614;1.442;2023-03-19T02:17:27;100141.69;;;11.24;100.00
44934;BME280;30667;43.614;1.442;2023-03-19T02:19:56;100130.63;;;11.21;100.00
44934;BME280;30667;43.614;1.442;2023-03-19T02:22:26;100129.78;;;11.25;100.00
44934;BME280;30667;43.614;1.442;2023-03-19T02:25:05;100126.84;;;11.22;100.00
44934;BME280;30667;43.614;1.442;2023-03-19T02:27:34;100136.84;;;11.21;100.00
44934;BME280;30667;43.614;1.442;2023-03-19T02:29:59;100136.03;;;11.21;100.00
44934;BME280;30667;43.614;1.442;2023-03-19T02:32:25;100132.25;;;11.17;100.00
44934;BME280;30667;43.614;1.442;2023-03-19T02:34:51;100141.50;;;11.11;100.00
44934;BME280;30667;43.614;1.442;2023-03-19T02:37:20;100139.38;;;11.07;100.00
44934;BME280;30667;43.614;1.442;2023-03-19T02:39:51;100139.88;;;11.09;100.00
44934;BME280;30667;43.614;1.442;2023-03-19T02:42:21;100140.97;;;11.08;100.00
44934;BME280;30667;43.614;1.442;2023-03-19T02:44:48;100138.00;;;11.05;100.00
44934;BME280;30667;43.614;1.442;2023-03-19T02:47:13;100139.38;;;11.02;100.00
44934;BME280;30667;43.614;1.442;2023-03-19T02:49:39;100141.53;;;11.00;100.00
44934;BME280;30667;43.614;1.442;2023-03-19T02:52:05;100141.84;;;10.94;100.00
44934;BME280;30667;43.614;1.442;2023-03-19T02:54:31;100138.63;;;10.92;100.00
44934;BME280;30667;43.614;1.442;2023-03-19T02:56:56;100142.16;;;10.87;100.00
44934;BME280;30667;43.614;1.442;2023-03-19T02:59:22;100145.69;;;10.82;100.00
44934;BME280;30667;43.614;1.442;2023-03-19T03:01:47;100141.06;;;10.83;100.00
44934;BME280;30667;43.614;1.442;2023-03-19T03:04:13;100148.94;;;10.79;100.00
44934;BME280;30667;43.614;1.442;2023-03-19T03:06:41;100144.59;;;10.78;100.00
44934;BME280;30667;43.614;1.442;2023-03-19T03:09:06;100145.97;;;10.76;100.00
44934;BME280;30667;43.614;1.442;2023-03-19T03:11:32;100143.28;;;10.76;100.00
44934;BME280;30667;43.614;1.442;2023-03-19T03:13:57;100146.78;;;10.76;100.00
44934;BME280;30667;43.614;1.442;2023-03-19T03:16:24;100151.13;;;10.77;100.00
44934;BME280;30667;43.614;1.442;2023-03-19T03:18:49;100154.88;;;10.81;100.00
44934;BME280;30667;43.614;1.442;2023-03-19T03:21:15;100151.38;;;10.81;100.00
44934;BME280;30667;43.614;1.442;2023-03-19T03:23:44;100147.84;;;10.80;100.00
44934;BME280;30667;43.614;1.442;2023-03-19T03:26:09;100144.88;;;10.82;100.00
44934;BME280;30667;43.614;1.442;2023-03-19T03:28:35;100145.69;;;10.82;100.00
44934;BME280;30667;43.614;1.442;2023-03-19T03:31:01;100151.34;;;10.86;100.00
44934;BME280;30667;43.614;1.442;2023-03-19T03:33:27;100149.19;;;10.83;100.00
44934;BME280;30667;43.614;1.442;2023-03-19T03:35:53;100151.09;;;10.82;100.00
44934;BME280;30667;43.614;1.442;2023-03-19T03:38:18;100150.28;;;10.82;100.00
44934;BME280;30667;43.614;1.442;2023-03-19T03:40:44;100152.72;;;10.83;100.00
44934;BME280;30667;43.614;1.442;2023-03-19T03:43:09;100144.31;;;10.85;100.00
44934;BME280;30667;43.614;1.442;2023-03-19T03:45:35;100155.41;;;10.88;100.00
44934;BME280;30667;43.614;1.442;2023-03-19T03:48:01;100157.84;;;10.90;100.00
44934;BME280;30667;43.614;1.442;2023-03-19T03:50:27;100158.94;;;10.84;100.00
44934;BME280;30667;43.614;1.442;2023-03-19T03:52:52;100160.00;;;10.83;100.00
44934;BME280;30667;43.614;1.442;2023-03-19T03:55:17;100155.97;;;10.85;100.00
44934;BME280;30667;43.614;1.442;2023-03-19T03:57:43;100159.50;;;10.81;100.00
44934;BME280;30667;43.614;1.442;2023-03-19T04:00:09;100165.16;;;10.84;100.00
44934;BME280;30667;43.614;1.442;2023-03-19T04:02:35;100162.16;;;10.86;100.00
44934;BME280;30667;43.614;1.442;2023-03-19T04:05:00;100177.34;;;10.87;100.00
44934;BME280;30667;43.614;1.442;2023-03-19T04:07:26;100174.63;;;10.87;100.00
44934;BME280;30667;43.614;1.442;2023-03-19T04:09:52;100180.31;;;10.85;100.00
44934;BME280;30667;43.614;1.442;2023-03-19T04:12:17;100177.88;;;10.89;100.00
44934;BME280;30667;43.614;1.442;2023-03-19T04:14:43;100189.25;;;10.86;100.00
44934;BME280;30667;43.614;1.442;2023-03-19T04:17:08;100192.75;;;10.86;100.00
44934;BME280;30667;43.614;1.442;2023-03-19T04:19:34;100187.06;;;10.88;100.00
44934;BME280;30667;43.614;1.442;2023-03-19T04:21:59;100187.91;;;10.83;100.00
44934;BME280;30667;43.614;1.442;2023-03-19T04:24:27;100194.94;;;10.84;100.00
44934;BME280;30667;43.614;1.442;2023-03-19T04:26:53;100197.63;;;10.84;100.00
44934;BME280;30667;43.614;1.442;2023-03-19T04:29:18;100201.44;;;10.83;100.00
44934;BME280;30667;43.614;1.442;2023-03-19T04:31:44;100194.69;;;10.81;100.00
44934;BME280;30667;43.614;1.442;2023-03-19T04:34:10;100200.09;;;10.76;100.00
44934;BME280;30667;43.614;1.442;2023-03-19T04:36:36;100198.47;;;10.75;100.00
44934;BME280;30667;43.614;1.442;2023-03-19T04:39:03;100203.09;;;10.74;100.00
44934;BME280;30667;43.614;1.442;2023-03-19T04:41:28;100203.09;;;10.74;100.00
44934;BME280;30667;43.614;1.442;2023-03-19T04:43:53;100211.19;;;10.74;100.00
44934;BME280;30667;43.614;1.442;2023-03-19T04:46:20;100212.00;;;10.75;100.00
44934;BME280;30667;43.614;1.442;2023-03-19T04:48:45;100211.47;;;10.72;100.00
44934;BME280;30667;43.614;1.442;2023-03-19T04:51:10;100223.13;;;10.68;100.00
44934;BME280;30667;43.614;1.442;2023-03-19T04:53:36;100222.84;;;10.69;100.00
44934;BME280;30667;43.614;1.442;2023-03-19T04:56:03;100228.00;;;10.71;100.00
44934;BME280;30667;43.614;1.442;2023-03-19T04:58:28;100231.75;;;10.70;100.00
44934;BME280;30667;43.614;1.442;2023-03-19T05:00:53;100222.56;;;10.71;100.00
44934;BME280;30667;43.614;1.442;2023-03-19T05:03:19;100236.38;;;10.69;100.00
44934;BME280;30667;43.614;1.442;2023-03-19T05:05:45;100235.53;;;10.69;100.00
44934;BME280;30667;43.614;1.442;2023-03-19T05:08:11;100243.66;;;10.69;100.00
44934;BME280;30667;43.614;1.442;2023-03-19T05:10:38;100240.16;;;10.68;100.00
44934;BME280;30667;43.614;1.442;2023-03-19T05:13:04;100241.25;;;10.67;100.00
44934;BME280;30667;43.614;1.442;2023-03-19T05:15:30;100236.66;;;10.68;100.00
44934;BME280;30667;43.614;1.442;2023-03-19T05:17:56;100246.94;;;10.66;100.00
44934;BME280;30667;43.614;1.442;2023-03-19T05:20:21;100252.88;;;10.68;100.00
44934;BME280;30667;43.614;1.442;2023-03-19T05:22:48;100261.53;;;10.65;100.00
44934;BME280;30667;43.614;1.442;2023-03-19T05:25:13;100255.88;;;10.66;100.00
44934;BME280;30667;43.614;1.442;2023-03-19T05:27:39;100260.72;;;10.69;100.00
44934;BME280;30667;43.614;1.442;2023-03-19T05:30:06;100268.84;;;10.64;100.00
44934;BME280;30667;43.614;1.442;2023-03-19T05:32:31;100268.00;;;10.69;100.00
44934;BME280;30667;43.614;1.442;2023-03-19T05:34:57;100266.69;;;10.66;100.00
44934;BME280;30667;43.614;1.442;2023-03-19T05:37:23;100269.38;;;10.66;100.00
44934;BME280;30667;43.614;1.442;2023-03-19T05:39:50;100268.84;;;10.64;100.00
44934;BME280;30667;43.614;1.442;2023-03-19T05:42:15;100268.84;;;10.64;100.00
44934;BME280;30667;43.614;1.442;2023-03-19T05:44:41;100272.09;;;10.61;100.00
44934;BME280;30667;43.614;1.442;2023-03-19T05:47:07;100277.78;;;10.60;100.00
44934;BME280;30667;43.614;1.442;2023-03-19T05:49:33;100273.19;;;10.60;100.00
44934;BME280;30667;43.614;1.442;2023-03-19T05:51:58;100280.75;;;10.58;100.00
44934;BME280;30667;43.614;1.442;2023-03-19T05:54:24;100274.00;;;10.56;100.00
44934;BME280;30667;43.614;1.442;2023-03-19T05:56:49;100270.75;;;10.53;100.00
44934;BME280;30667;43.614;1.442;2023-03-19T05:59:15;100281.03;;;10.51;100.00
44934;BME280;30667;43.614;1.442;2023-03-19T06:01:41;100279.13;;;10.52;100.00
44934;BME280;30667;43.614;1.442;2023-03-19T06:04:06;100292.94;;;10.56;100.00
44934;BME280;30667;43.614;1.442;2023-03-19T06:06:32;100293.47;;;10.52;100.00
44934;BME280;30667;43.614;1.442;2023-03-19T06:08:57;100305.91;;;10.53;100.00
44934;BME280;30667;43.614;1.442;2023-03-19T06:11:23;100304.28;;;10.52;100.00
44934;BME280;30667;43.614;1.442;2023-03-19T06:13:48;100306.19;;;10.52;100.00
44934;BME280;30667;43.614;1.442;2023-03-19T06:16:14;100310.22;;;10.49;100.00
44934;BME280;30667;43.614;1.442;2023-03-19T06:18:40;100305.94;;;10.48;100.00
44934;BME280;30667;43.614;1.442;2023-03-19T06:21:06;100307.81;;;10.48;100.00
44934;BME280;30667;43.614;1.442;2023-03-19T06:23:31;100312.13;;;10.49;100.00
44934;BME280;30667;43.614;1.442;2023-03-19T06:25:57;100312.13;;;10.49;100.00
44934;BME280;30667;43.614;1.442;2023-03-19T06:28:22;100320.78;;;10.51;100.00
44934;BME280;30667;43.614;1.442;2023-03-19T06:30:47;100320.25;;;10.54;100.00
44934;BME280;30667;43.614;1.442;2023-03-19T06:33:13;100324.59;;;10.60;100.00
44934;BME280;30667;43.614;1.442;2023-03-19T06:35:39;100325.66;;;10.75;100.00
44934;BME280;30667;43.614;1.442;2023-03-19T06:38:04;100326.75;;;10.68;100.00
44934;BME280;30667;43.614;1.442;2023-03-19T06:40:31;100318.91;;;10.67;100.00
44934;BME280;30667;43.614;1.442;2023-03-19T06:42:57;100325.94;;;10.68;100.00
44934;BME280;30667;43.614;1.442;2023-03-19T06:45:22;100329.47;;;10.63;100.00
44934;BME280;30667;43.614;1.442;2023-03-19T06:47:47;100334.06;;;10.63;100.00
44934;BME280;30667;43.614;1.442;2023-03-19T06:50:14;100338.13;;;10.60;100.00
44934;BME280;30667;43.614;1.442;2023-03-19T06:52:43;100339.19;;;10.59;100.00
44934;BME280;30667;43.614;1.442;2023-03-19T06:55:09;100340.81;;;10.60;100.00
44934;BME280;30667;43.614;1.442;2023-03-19T06:57:35;100344.63;;;10.64;100.00
44934;BME280;30667;43.614;1.442;2023-03-19T07:00:02;100344.88;;;10.68;100.00
44934;BME280;30667;43.614;1.442;2023-03-19T07:02:28;100350.03;;;10.69;100.00
44934;BME280;30667;43.614;1.442;2023-03-19T07:04:53;100357.63;;;10.72;100.00
44934;BME280;30667;43.614;1.442;2023-03-19T07:07:19;100362.75;;;10.79;100.00
44934;BME280;30667;43.614;1.442;2023-03-19T07:09:44;100361.13;;;10.88;100.00
44934;BME280;30667;43.614;1.442;2023-03-19T07:12:10;100361.38;;;10.97;100.00
44934;BME280;30667;43.614;1.442;2023-03-19T07:14:35;100366.78;;;11.02;100.00
44934;BME280;30667;43.614;1.442;2023-03-19T07:17:01;100368.44;;;11.03;100.00
44934;BME280;30667;43.614;1.442;2023-03-19T07:19:26;100374.66;;;10.99;100.00
44934;BME280;30667;43.614;1.442;2023-03-19T07:21:52;100376.56;;;11.03;100.00
44934;BME280;30667;43.614;1.442;2023-03-19T07:24:17;100373.31;;;11.01;100.00
44934;BME280;30667;43.614;1.442;2023-03-19T07:26:43;100381.16;;;11.03;100.00
44934;BME280;30667;43.614;1.442;2023-03-19T07:29:09;100380.34;;;11.02;100.00
44934;BME280;30667;43.614;1.442;2023-03-19T07:31:35;100382.25;;;11.02;100.00
44934;BME280;30667;43.614;1.442;2023-03-19T07:34:00;100386.31;;;11.04;100.00
44934;BME280;30667;43.614;1.442;2023-03-19T07:36:26;100390.66;;;11.11;100.00
44934;BME280;30667;43.614;1.442;2023-03-19T07:38:51;100388.19;;;11.14;100.00
44934;BME280;30667;43.614;1.442;2023-03-19T07:41:17;100388.72;;;11.21;100.00
44934;BME280;30667;43.614;1.442;2023-03-19T07:43:44;100398.47;;;11.27;100.00
44934;BME280;30667;43.614;1.442;2023-03-19T07:46:09;100390.06;;;11.39;100.00
44934;BME280;30667;43.614;1.442;2023-03-19T07:48:35;100391.13;;;11.43;100.00
44934;BME280;30667;43.614;1.442;2023-03-19T07:51:01;100389.53;;;11.42;100.00
44934;BME280;30667;43.614;1.442;2023-03-19T07:53:26;100401.94;;;11.49;100.00
44934;BME280;30667;43.614;1.442;2023-03-19T07:55:52;100403.03;;;11.53;100.00
44934;BME280;30667;43.614;1.442;2023-03-19T07:58:17;100408.72;;;11.51;100.00
44934;BME280;30667;43.614;1.442;2023-03-19T08:00:43;100410.66;;;11.45;100.00
44934;BME280;30667;43.614;1.442;2023-03-19T08:03:12;100423.13;;;11.36;100.00
44934;BME280;30667;43.614;1.442;2023-03-19T08:05:38;100417.97;;;11.30;100.00
44934;BME280;30667;43.614;1.442;2023-03-19T08:08:04;100420.13;;;11.27;100.00
44934;BME280;30667;43.614;1.442;2023-03-19T08:10:29;100427.19;;;11.29;100.00
44934;BME280;30667;43.614;1.442;2023-03-19T08:12:55;100432.31;;;11.35;100.00
44934;BME280;30667;43.614;1.442;2023-03-19T08:15:21;100437.75;;;11.30;100.00
44934;BME280;30667;43.614;1.442;2023-03-19T08:17:46;100438.84;;;11.24;100.00
44934;BME280;30667;43.614;1.442;2023-03-19T08:20:14;100443.69;;;11.32;100.00
44934;BME280;30667;43.614;1.442;2023-03-19T08:22:42;100450.19;;;11.26;100.00
44934;BME280;30667;43.614;1.442;2023-03-19T08:25:08;100445.59;;;11.37;100.00
44934;BME280;30667;43.614;1.442;2023-03-19T08:27:34;100450.72;;;11.49;100.00
44934;BME280;30667;43.614;1.442;2023-03-19T08:30:02;100445.03;;;11.55;100.00
44934;BME280;30667;43.614;1.442;2023-03-19T08:32:28;100447.75;;;11.55;100.00
44934;BME280;30667;43.614;1.442;2023-03-19T08:34:53;100440.94;;;11.68;100.00
44934;BME280;30667;43.614;1.442;2023-03-19T08:37:20;100440.13;;;11.62;100.00
44934;BME280;30667;43.614;1.442;2023-03-19T08:39:45;100450.44;;;11.66;100.00
44934;BME280;30667;43.614;1.442;2023-03-19T08:42:11;100451.78;;;11.73;100.00
44934;BME280;30667;43.614;1.442;2023-03-19T08:44:36;100446.38;;;11.68;100.00
44934;BME280;30667;43.614;1.442;2023-03-19T08:47:02;100458.56;;;11.66;100.00
44934;BME280;30667;43.614;1.442;2023-03-19T08:49:27;100457.19;;;11.73;100.00
44934;BME280;30667;43.614;1.442;2023-03-19T08:51:53;100460.97;;;11.77;100.00
44934;BME280;30667;43.614;1.442;2023-03-19T08:54:19;100462.06;;;11.81;100.00
44934;BME280;30667;43.614;1.442;2023-03-19T08:56:44;100465.03;;;11.85;100.00
44934;BME280;30667;43.614;1.442;2023-03-19T08:59:10;100475.03;;;11.90;100.00
44934;BME280;30667;43.614;1.442;2023-03-19T09:01:35;100465.03;;;11.85;100.00
44934;BME280;30667;43.614;1.442;2023-03-19T09:04:01;100471.53;;;11.79;100.00
44934;BME280;30667;43.614;1.442;2023-03-19T09:06:26;100475.34;;;11.83;100.00
44934;BME280;30667;43.614;1.442;2023-03-19T09:08:52;100479.94;;;11.98;100.00
44934;BME280;30667;43.614;1.442;2023-03-19T09:11:17;100475.56;;;12.17;100.00
44934;BME280;30667;43.614;1.442;2023-03-19T09:13:43;100482.56;;;12.29;100.00
44934;BME280;30667;43.614;1.442;2023-03-19T09:16:08;100489.59;;;12.35;100.00
44934;BME280;30667;43.614;1.442;2023-03-19T09:18:34;100487.72;;;12.30;100.00
44934;BME280;30667;43.614;1.442;2023-03-19T09:21:00;100484.16;;;12.35;100.00
44934;BME280;30667;43.614;1.442;2023-03-19T09:23:26;100488.25;;;12.32;100.00
44934;BME280;30667;43.614;1.442;2023-03-19T09:25:51;100488.28;;;12.22;100.00
44934;BME280;30667;43.614;1.442;2023-03-19T09:28:17;100485.84;;;12.15;100.00
44934;BME280;30667;43.614;1.442;2023-03-19T09:30:45;100491.56;;;12.09;100.00
44934;BME280;30667;43.614;1.442;2023-03-19T09:33:11;100488.34;;;12.07;100.00
44934;BME280;30667;43.614;1.442;2023-03-19T09:35:37;100494.31;;;12.04;100.00
44934;BME280;30667;43.614;1.442;2023-03-19T09:38:04;100500.53;;;12.14;100.00
44934;BME280;30667;43.614;1.442;2023-03-19T09:40:40;100505.44;;;12.02;100.00
44934;BME280;30667;43.614;1.442;2023-03-19T09:46:12;100503.53;;;12.08;100.00
44934;BME280;30667;43.614;1.442;2023-03-19T09:48:45;100510.25;;;12.15;100.00
44934;BME280;30667;43.614;1.442;2023-03-19T09:51:19;100497.53;;;12.06;100.00
44934;BME280;30667;43.614;1.442;2023-03-19T09:54:03;100495.38;;;12.13;100.00
44934;BME280;30667;43.614;1.442;2023-03-19T09:56:31;100495.63;;;12.16;100.00
44934;BME280;30667;43.614;1.442;2023-03-19T09:58:57;100496.09;;;12.34;100.00
44934;BME280;30667;43.614;1.442;2023-03-19T10:01:32;100485.75;;;12.41;100.00
44934;BME280;30667;43.614;1.442;2023-03-19T10:07:23;100489.28;;;12.42;100.00
44934;BME280;30667;43.614;1.442;2023-03-19T10:15:25;100489.97;;;12.68;100.00
44934;BME280;30667;43.614;1.442;2023-03-19T10:20:34;100480.91;;;12.88;100.00
44934;BME280;30667;43.614;1.442;2023-03-19T10:23:18;100489.47;;;13.05;100.00
44934;BME280;30667;43.614;1.442;2023-03-19T10:25:51;100490.50;;;13.15;100.00
44934;BME280;30667;43.614;1.442;2023-03-19T10:28:18;100487.50;;;13.11;100.00
44934;BME280;30667;43.614;1.442;2023-03-19T10:30:54;100486.03;;;13.34;100.00
44934;BME280;30667;43.614;1.442;2023-03-19T10:33:31;100490.88;;;13.37;100.00
44934;BME280;30667;43.614;1.442;2023-03-19T10:36:07;100482.75;;;13.37;100.00
44934;BME280;30667;43.614;1.442;2023-03-19T10:38:38;100489.47;;;13.45;100.00
44934;BME280;30667;43.614;1.442;2023-03-19T10:43:48;100496.56;;;13.41;100.00
44934;BME280;30667;43.614;1.442;2023-03-19T10:46:15;100499.28;;;13.41;100.00
44934;BME280;30667;43.614;1.442;2023-03-19T10:48:45;100485.22;;;13.29;100.00
44934;BME280;30667;43.614;1.442;2023-03-19T10:51:14;100492.19;;;13.05;100.00
44934;BME280;30667;43.614;1.442;2023-03-19T10:53:41;100489.59;;;12.85;100.00
44934;BME280;30667;43.614;1.442;2023-03-19T10:56:24;100492.88;;;12.82;100.00
44934;BME280;30667;43.614;1.442;2023-03-19T10:59:01;100494.28;;;12.74;100.00
44934;BME280;30667;43.614;1.442;2023-03-19T11:01:32;100496.44;;;12.77;100.00
44934;BME280;30667;43.614;1.442;2023-03-19T11:04:00;100492.53;;;12.94;100.00
44934;BME280;30667;43.614;1.442;2023-03-19T11:06:31;100491.22;;;13.25;100.00
44934;BME280;30667;43.614;1.442;2023-03-19T11:11:41;100496.31;;;13.37;100.00
44934;BME280;30667;43.614;1.442;2023-03-19T11:14:13;100495.38;;;13.13;100.00
44934;BME280;30667;43.614;1.442;2023-03-19T11:16:49;100502.03;;;12.96;100.00
44934;BME280;30667;43.614;1.442;2023-03-19T11:19:30;100505.06;;;12.89;100.00
44934;BME280;30667;43.614;1.442;2023-03-19T11:24:41;100500.19;;;12.86;100.00
44934;BME280;30667;43.614;1.442;2023-03-19T11:27:12;100482.94;;;13.06;100.00
44934;BME280;30667;43.614;1.442;2023-03-19T11:29:43;100476.38;;;13.13;100.00
44934;BME280;30667;43.614;1.442;2023-03-19T11:35:18;100473.97;;;13.46;100.00
44934;BME280;30667;43.614;1.442;2023-03-19T11:37:55;100468.97;;;13.58;100.00
44934;BME280;30667;43.614;1.442;2023-03-19T11:40:45;100470.50;;;13.69;100.00
44934;BME280;30667;43.614;1.442;2023-03-19T11:46:42;100480.25;;;13.94;100.00
44934;BME280;30667;43.614;1.442;2023-03-19T11:49:32;100471.59;;;13.92;100.00
44934;BME280;30667;43.614;1.442;2023-03-19T11:52:24;100466.63;;;13.99;100.00
44934;BME280;30667;43.614;1.442;2023-03-19T11:55:09;100472.00;;;14.05;100.00
44934;BME280;30667;43.614;1.442;2023-03-19T11:58:01;100460.41;;;14.18;100.00
44934;BME280;30667;43.614;1.442;2023-03-19T12:09:11;100470.78;;;14.16;100.00
44934;BME280;30667;43.614;1.442;2023-03-19T12:18:15;100454.69;;;14.63;100.00
44934;BME280;30667;43.614;1.442;2023-03-19T12:21:05;100461.91;;;14.73;100.00
44934;BME280;30667;43.614;1.442;2023-03-19T12:23:39;100449.91;;;14.74;100.00
44934;BME280;30667;43.614;1.442;2023-03-19T12:26:23;100456.63;;;14.81;100.00
44934;BME280;30667;43.614;1.442;2023-03-19T12:29:19;100448.72;;;14.80;100.00
44934;BME280;30667;43.614;1.442;2023-03-19T12:35:01;100448.81;;;14.75;100.00
44934;BME280;30667;43.614;1.442;2023-03-19T12:40:37;100442.81;;;14.92;100.00
44934;BME280;30667;43.614;1.442;2023-03-19T12:43:25;100433.06;;;14.91;100.00
44934;BME280;30667;43.614;1.442;2023-03-19T12:51:54;100439.59;;;14.89;100.00
44934;BME280;30667;43.614;1.442;2023-03-19T12:54:50;100433.97;;;14.24;100.00
44934;BME280;30667;43.614;1.442;2023-03-19T12:59:58;100446.03;;;13.93;100.00
44934;BME280;30667;43.614;1.442;2023-03-19T13:02:50;100431.06;;;14.15;100.00
44934;BME280;30667;43.614;1.442;2023-03-19T13:05:26;100423.19;;;14.13;100.00
44934;BME280;30667;43.614;1.442;2023-03-19T13:10:29;100421.81;;;14.16;100.00
44934;BME280;30667;43.614;1.442;2023-03-19T13:12:57;100418.03;;;14.12;100.00
44934;BME280;30667;43.614;1.442;2023-03-19T13:15:32;100416.72;;;14.09;100.00
44934;BME280;30667;43.614;1.442;2023-03-19T13:18:29;100417.44;;;14.15;100.00
44934;BME280;30667;43.614;1.442;2023-03-19T13:23:30;100418.94;;;14.26;100.00
44934;BME280;30667;43.614;1.442;2023-03-19T13:25:59;100416.00;;;14.23;100.00
44934;BME280;30667;43.614;1.442;2023-03-19T13:33:26;100409.72;;;14.65;100.00
44934;BME280;30667;43.614;1.442;2023-03-19T13:35:54;100408.47;;;14.77;100.00
44934;BME280;30667;43.614;1.442;2023-03-19T13:38:42;100396.81;;;14.90;100.00
44934;BME280;30667;43.614;1.442;2023-03-19T13:46:55;100410.50;;;14.47;100.00
44934;BME280;30667;43.614;1.442;2023-03-19T14:05:45;100402.03;;;14.48;100.00
44934;BME280;30667;43.614;1.442;2023-03-19T14:08:20;100401.22;;;14.48;100.00
44934;BME280;30667;43.614;1.442;2023-03-19T14:10:49;100400.19;;;14.44;100.00
44934;BME280;30667;43.614;1.442;2023-03-19T14:13:31;100396.38;;;14.45;100.00
44934;BME280;30667;43.614;1.442;2023-03-19T14:16:14;100397.94;;;14.51;100.00
44934;BME280;30667;43.614;1.442;2023-03-19T14:18:42;100405.97;;;14.61;100.00